createdAt,value
2019-02-06T00:03:37.546Z,70.70
2019-02-06T00:08:50.915Z,69.80
2019-02-06T00:11:27.600Z,62.00
2019-02-06T00:14:04.323Z,69.60
2019-02-06T00:16:41.046Z,67.70
2019-02-06T00:19:17.910Z,69.40
2019-02-06T00:21:54.620Z,58.10
2019-02-06T00:24:31.706Z,58.90
2019-02-06T00:27:08.423Z,67.10
2019-02-06T00:29:45.088Z,68.10
2019-02-06T00:32:21.897Z,64.10
2019-02-06T00:34:58.580Z,67.90
2019-02-06T00:37:35.280Z,68.70
2019-02-06T00:40:12.786Z,68.90
2019-02-06T00:42:49.541Z,71.10
2019-02-06T00:45:26.298Z,68.60
2019-02-06T00:50:37.397Z,69.00
2019-02-06T00:55:48.392Z,69.50
2019-02-06T00:58:25.156Z,69.10
2019-02-06T01:01:01.883Z,65.10
2019-02-06T01:06:14.094Z,69.00
2019-02-06T01:08:51.157Z,68.40
2019-02-06T01:11:27.903Z,68.70
2019-02-06T01:16:38.952Z,67.80
2019-02-06T01:19:15.925Z,68.10
2019-02-06T01:24:27.887Z,67.00
2019-02-06T01:32:13.949Z,67.70
2019-02-06T01:34:50.684Z,63.10
2019-02-06T01:37:27.427Z,67.60
2019-02-06T01:40:04.422Z,63.70
2019-02-06T01:45:17.623Z,68.10
2019-02-06T01:47:55.628Z,66.90
2019-02-06T01:50:32.408Z,66.30
2019-02-06T01:53:09.137Z,66.60
2019-02-06T02:00:54.514Z,65.50
2019-02-06T02:03:31.234Z,65.80
2019-02-06T02:06:08.064Z,63.30
2019-02-06T02:08:50.197Z,63.50
2019-02-06T02:11:27.039Z,67.50
2019-02-06T02:14:03.759Z,55.10
2019-02-06T02:16:40.473Z,54.70
2019-02-06T02:19:17.191Z,55.50
2019-02-06T02:21:53.955Z,63.70
2019-02-06T02:24:30.785Z,56.40
2019-02-06T02:27:09.160Z,53.60
2019-02-06T02:29:48.843Z,55.80
2019-02-06T02:32:25.682Z,55.60
2019-02-06T02:35:02.382Z,56.80
2019-02-06T02:37:39.165Z,53.80
2019-02-06T02:40:18.425Z,52.00
2019-02-06T02:42:55.171Z,59.40
2019-02-06T02:45:31.902Z,60.00
2019-02-06T02:48:08.634Z,58.60
2019-02-06T02:50:45.371Z,59.20
2019-02-06T02:58:31.390Z,58.00
2019-02-06T03:01:25.740Z,52.90
2019-02-06T03:12:01.540Z,60.90
2019-02-06T03:14:38.383Z,61.60
2019-02-06T03:17:15.083Z,61.10
2019-02-06T03:25:00.756Z,61.70
2019-02-06T03:32:47.406Z,52.30
2019-02-06T03:35:24.259Z,53.30
2019-02-06T03:38:01.062Z,52.10
2019-02-06T03:40:37.803Z,52.60
2019-02-06T03:43:14.559Z,53.30
2019-02-06T03:45:51.286Z,53.00
2019-02-06T03:48:28.283Z,52.70
2019-02-06T03:53:39.423Z,59.60
2019-02-06T03:56:16.167Z,60.50
2019-02-06T04:01:27.288Z,59.90
2019-02-06T04:04:04.120Z,52.20
2019-02-06T04:06:52.757Z,62.60
2019-02-06T04:09:18.794Z,52.60
2019-02-06T04:11:55.877Z,53.40
2019-02-06T04:14:32.624Z,52.80
2019-02-06T04:17:09.567Z,67.40
2019-02-06T04:19:46.329Z,55.00
2019-02-06T04:22:23.107Z,69.20
2019-02-06T04:24:59.933Z,56.30
2019-02-06T04:27:36.881Z,68.70
2019-02-06T04:30:16.415Z,55.80
2019-02-06T04:32:52.913Z,69.10
2019-02-06T04:35:29.622Z,56.00
2019-02-06T04:38:06.497Z,55.40
2019-02-06T04:40:43.269Z,55.90
2019-02-06T04:43:20.049Z,69.80
2019-02-06T04:45:56.826Z,57.20
2019-02-06T04:48:33.720Z,68.30
2019-02-06T04:51:10.482Z,69.20
2019-02-06T04:53:47.270Z,54.60
2019-02-06T04:56:24.108Z,54.10
2019-02-06T04:59:00.783Z,57.90
2019-02-06T05:01:37.563Z,63.20
2019-02-06T05:04:14.372Z,65.70
2019-02-06T05:06:51.320Z,64.40
2019-02-06T05:09:28.380Z,64.40
2019-02-06T05:12:05.261Z,63.50
2019-02-06T05:14:42.112Z,64.20
2019-02-06T05:17:18.867Z,53.40
2019-02-06T05:22:29.984Z,54.20
2019-02-06T05:25:06.695Z,54.30
2019-02-06T05:27:43.441Z,54.40
2019-02-06T05:30:20.376Z,54.00
2019-02-06T05:32:57.049Z,54.30
2019-02-06T05:35:33.841Z,54.90
2019-02-06T05:38:11.573Z,55.20
2019-02-06T05:40:48.392Z,68.00
2019-02-06T05:43:25.232Z,65.00
2019-02-06T05:46:02.084Z,64.00
2019-02-06T05:48:39.197Z,54.40
2019-02-06T05:51:16.229Z,64.90
2019-02-06T05:53:53.052Z,64.50
2019-02-06T05:56:31.693Z,65.00
2019-02-06T05:59:08.514Z,65.30
2019-02-06T06:04:19.520Z,63.10
2019-02-06T06:09:30.565Z,63.90
2019-02-06T06:12:07.354Z,64.00
2019-02-06T06:25:02.048Z,62.20
2019-02-06T06:27:38.849Z,64.20
2019-02-06T06:30:17.663Z,54.80
2019-02-06T06:32:54.501Z,55.20
2019-02-06T06:35:31.216Z,66.70
2019-02-06T06:38:08.333Z,56.30
2019-02-06T06:40:45.077Z,55.60
2019-02-06T06:43:25.440Z,55.40
2019-02-06T06:46:02.129Z,65.00
2019-02-06T06:48:39.098Z,54.50
2019-02-06T06:51:15.895Z,55.10
2019-02-06T06:53:52.619Z,54.30
2019-02-06T06:56:29.333Z,54.50
2019-02-06T06:59:06.053Z,70.80
2019-02-06T07:01:42.742Z,54.90
2019-02-06T07:04:19.547Z,69.60
2019-02-06T07:06:56.274Z,54.30
2019-02-06T07:09:33.079Z,54.50
2019-02-06T07:12:09.881Z,54.60
2019-02-06T07:14:46.682Z,65.90
2019-02-06T07:17:23.640Z,65.50
2019-02-06T07:20:00.367Z,66.30
2019-02-06T07:22:37.163Z,55.00
2019-02-06T07:25:14.094Z,65.90
2019-02-06T07:27:50.820Z,65.20
2019-02-06T07:30:32.843Z,66.90
2019-02-06T07:33:09.623Z,65.00
2019-02-06T07:38:24.244Z,66.00
2019-02-06T07:40:59.023Z,65.10
2019-02-06T07:43:35.779Z,65.30
2019-02-06T07:46:12.795Z,66.30
2019-02-06T07:48:49.593Z,65.60
2019-02-06T07:51:26.339Z,60.40
2019-02-06T07:54:03.205Z,56.60
2019-02-06T07:56:39.982Z,80.00
2019-02-06T07:59:16.679Z,58.00
2019-02-06T08:01:53.455Z,57.80
2019-02-06T08:04:30.243Z,57.90
2019-02-06T08:07:07.007Z,58.10
2019-02-06T08:09:43.733Z,58.80
2019-02-06T08:12:20.632Z,59.60
2019-02-06T08:14:57.740Z,60.50
2019-02-06T08:17:34.528Z,61.20
2019-02-06T08:20:11.557Z,61.70
2019-02-06T08:22:48.306Z,62.90
2019-02-06T08:25:25.110Z,74.30
2019-02-06T08:28:02.056Z,63.20
2019-02-06T08:30:43.872Z,63.00
2019-02-06T08:35:55.287Z,62.20
2019-02-06T08:38:32.621Z,63.10
2019-02-06T08:41:09.378Z,63.30
2019-02-06T08:43:46.335Z,63.40
2019-02-06T08:46:23.112Z,63.50
2019-02-06T08:48:59.861Z,63.70
2019-02-06T08:51:36.565Z,64.00
2019-02-06T08:54:13.293Z,64.20
2019-02-06T08:56:50.127Z,64.40
2019-02-06T08:59:26.996Z,65.00
2019-02-06T09:02:03.723Z,66.20
2019-02-06T09:04:40.536Z,66.10
2019-02-06T09:07:17.315Z,66.00
2019-02-06T09:09:54.354Z,65.70
2019-02-06T09:12:31.751Z,65.60
2019-02-06T09:15:08.497Z,65.60
2019-02-06T09:17:45.192Z,66.10
2019-02-06T09:20:24.241Z,65.90
2019-02-06T09:23:01.009Z,66.80
2019-02-06T09:25:37.751Z,66.20
2019-02-06T09:28:14.485Z,66.40
2019-02-06T09:30:51.685Z,66.50
2019-02-06T09:33:28.434Z,66.90
2019-02-06T09:36:05.185Z,66.70
2019-02-06T09:38:44.185Z,67.00
2019-02-06T09:41:21.256Z,68.10
2019-02-06T09:43:58.140Z,67.10
2019-02-06T09:46:34.837Z,68.50
2019-02-06T09:49:11.528Z,67.80
2019-02-06T09:51:48.347Z,66.80
2019-02-06T09:54:25.059Z,66.30
2019-02-06T09:57:04.112Z,66.20
2019-02-06T09:59:41.136Z,68.00
2019-02-06T10:02:17.851Z,66.40
2019-02-06T10:04:54.838Z,66.60
2019-02-06T10:07:31.763Z,66.50
2019-02-06T10:12:43.400Z,64.90
2019-02-06T10:15:23.010Z,66.00
2019-02-06T10:18:05.656Z,78.30
2019-02-06T10:20:49.426Z,79.60
2019-02-06T10:23:26.421Z,66.00
2019-02-06T10:26:07.102Z,79.70
2019-02-06T10:28:44.313Z,66.30
2019-02-06T10:31:21.089Z,78.70
2019-02-06T10:33:57.839Z,73.50
2019-02-06T10:36:34.864Z,79.20
2019-02-06T10:39:13.029Z,78.70
2019-02-06T10:41:51.709Z,78.30
2019-02-06T10:44:28.451Z,78.80
2019-02-06T10:47:08.010Z,80.10
2019-02-06T10:49:46.228Z,67.20
2019-02-06T10:52:22.879Z,67.00
2019-02-06T10:54:59.996Z,67.60
2019-02-06T10:57:36.761Z,67.90
2019-02-06T11:00:22.624Z,67.30
2019-02-06T11:02:59.843Z,67.20
2019-02-06T11:05:36.677Z,68.10
2019-02-06T11:08:13.684Z,67.80
2019-02-06T11:10:50.421Z,81.60
2019-02-06T11:13:27.413Z,82.10
2019-02-06T11:16:04.528Z,81.90
2019-02-06T11:18:44.235Z,81.30
2019-02-06T11:21:19.356Z,81.40
2019-02-06T11:23:56.276Z,81.20
2019-02-06T11:29:07.622Z,79.90
2019-02-06T11:34:20.797Z,81.20
2019-02-06T11:39:36.881Z,82.00
2019-02-06T11:42:13.800Z,82.00
2019-02-06T11:44:50.574Z,82.00
2019-02-06T11:47:28.937Z,83.30
2019-02-06T11:50:07.107Z,82.10
2019-02-06T11:52:45.267Z,81.60
2019-02-06T11:55:24.587Z,81.50
2019-02-06T11:58:01.402Z,82.30
2019-02-06T12:01:00.422Z,81.60
2019-02-06T12:03:37.320Z,81.60
2019-02-06T12:06:14.434Z,82.30
2019-02-06T12:08:51.237Z,80.80
2019-02-06T12:11:28.042Z,80.80
2019-02-06T12:14:04.964Z,80.70
2019-02-06T12:19:16.465Z,79.60
2019-02-06T12:21:53.245Z,79.00
2019-02-06T12:24:30.048Z,80.40
2019-02-06T12:27:06.922Z,79.20
2019-02-06T12:29:43.520Z,79.70
2019-02-06T12:32:20.228Z,79.70
2019-02-06T12:34:56.940Z,78.90
2019-02-06T12:37:33.909Z,80.40
2019-02-06T12:40:21.104Z,79.40
2019-02-06T12:42:48.674Z,78.90
2019-02-06T12:45:26.269Z,79.10
2019-02-06T12:50:37.724Z,80.40
2019-02-06T12:53:14.899Z,79.80
2019-02-06T12:58:26.422Z,79.20
2019-02-06T13:03:37.615Z,80.10
2019-02-06T13:06:14.735Z,79.60
2019-02-06T13:08:51.483Z,80.90
2019-02-06T13:11:28.252Z,81.90
2019-02-06T13:14:05.065Z,80.40
2019-02-06T13:16:42.047Z,80.30
2019-02-06T13:19:20.732Z,80.70
2019-02-06T13:21:57.548Z,81.20
2019-02-06T13:24:38.410Z,80.90
2019-02-06T13:27:15.643Z,80.00
2019-02-06T13:29:52.417Z,80.70
2019-02-06T13:37:38.033Z,80.70
2019-02-06T13:40:17.713Z,81.50
2019-02-06T13:42:54.534Z,81.60
2019-02-06T13:45:33.795Z,81.70
2019-02-06T13:48:10.628Z,81.80
2019-02-06T13:50:47.519Z,82.10
2019-02-06T13:53:25.686Z,83.40
2019-02-06T13:56:02.476Z,82.10
2019-02-06T13:58:39.245Z,82.40
2019-02-06T14:01:25.353Z,82.60
2019-02-06T14:03:53.990Z,83.20
2019-02-06T14:06:30.807Z,71.50
2019-02-06T14:09:08.707Z,72.10
2019-02-06T14:11:45.527Z,72.20
2019-02-06T14:14:26.850Z,72.30
2019-02-06T14:17:03.718Z,72.30
2019-02-06T14:19:40.389Z,72.50
2019-02-06T14:22:17.159Z,72.70
2019-02-06T14:25:08.429Z,72.10
2019-02-06T14:28:11.423Z,72.60
2019-02-06T14:31:28.922Z,86.20
2019-02-06T14:34:17.671Z,85.40
2019-02-06T14:37:28.139Z,84.50
2019-02-06T14:40:43.159Z,85.50
2019-02-06T14:43:56.022Z,85.80
2019-02-06T14:47:02.143Z,84.00
2019-02-06T14:50:29.170Z,84.30
2019-02-06T14:53:45.707Z,84.80
2019-02-06T14:57:00.404Z,79.60
2019-02-06T14:59:56.220Z,84.50
2019-02-06T15:03:17.885Z,84.70
2019-02-06T15:06:15.024Z,83.70
2019-02-06T15:09:40.349Z,84.30
2019-02-06T15:13:02.459Z,85.00
2019-02-06T15:16:11.526Z,85.30
2019-02-06T15:19:12.520Z,85.80
2019-02-06T15:22:22.881Z,86.50
2019-02-06T15:25:34.299Z,72.40
2019-02-06T15:28:47.235Z,73.10
2019-02-06T15:32:20.355Z,72.90
2019-02-06T15:35:57.821Z,72.70
2019-02-06T15:39:17.971Z,72.80
2019-02-06T15:42:22.004Z,72.70
2019-02-06T15:45:39.819Z,72.70
2019-02-06T15:48:44.346Z,86.00
2019-02-06T15:51:58.964Z,79.50
2019-02-06T15:54:56.482Z,86.00
2019-02-06T15:58:01.095Z,85.60
2019-02-06T16:01:18.741Z,86.20
2019-02-06T16:04:40.000Z,86.30
2019-02-06T16:07:58.024Z,86.00
2019-02-06T16:11:04.016Z,86.40
2019-02-06T16:13:54.676Z,86.50
2019-02-06T16:17:20.583Z,86.40
2019-02-06T16:20:16.234Z,85.60
2019-02-06T16:23:19.683Z,85.80
2019-02-06T16:26:35.415Z,85.70
2019-02-06T16:30:08.235Z,86.20
2019-02-06T16:33:12.698Z,86.20
2019-02-06T16:36:12.087Z,86.40
2019-02-06T16:39:08.804Z,86.80
2019-02-06T16:42:30.872Z,86.90
2019-02-06T16:45:39.644Z,86.30
2019-02-06T16:48:53.558Z,86.00
2019-02-06T16:52:03.058Z,86.40
2019-02-06T16:55:20.767Z,86.40
2019-02-06T16:58:10.991Z,73.80
2019-02-06T17:01:16.688Z,74.20
2019-02-06T17:04:10.883Z,74.10
2019-02-06T17:07:34.476Z,74.10
2019-02-06T17:10:55.475Z,74.00
2019-02-06T17:13:52.681Z,73.90
2019-02-06T17:16:57.977Z,74.10
2019-02-06T17:19:53.057Z,73.80
2019-02-06T17:23:08.396Z,73.90
2019-02-06T17:26:07.315Z,73.50
2019-02-06T17:29:09.919Z,73.50
2019-02-06T17:32:08.440Z,73.60
2019-02-06T17:35:18.196Z,73.50
2019-02-06T17:44:25.299Z,78.80
2019-02-06T17:47:38.948Z,84.80
2019-02-06T17:50:51.124Z,84.30
2019-02-06T17:53:46.540Z,84.60
2019-02-06T17:56:23.543Z,83.70
2019-02-06T17:59:00.740Z,83.90
2019-02-06T18:06:49.970Z,83.80
2019-02-06T18:09:26.879Z,83.80
2019-02-06T18:12:03.564Z,82.80
2019-02-06T18:14:40.323Z,83.80
2019-02-06T18:19:51.495Z,83.70
2019-02-06T18:22:28.208Z,84.10
2019-02-06T18:25:04.885Z,83.80
2019-02-06T18:27:41.655Z,83.90
2019-02-06T18:30:21.342Z,82.10
2019-02-06T18:32:59.060Z,84.20
2019-02-06T18:35:35.867Z,83.60
2019-02-06T18:38:13.684Z,84.00
2019-02-06T18:40:51.165Z,83.80
2019-02-06T18:43:27.924Z,79.20
2019-02-06T18:46:04.764Z,84.20
2019-02-06T18:53:50.456Z,84.50
2019-02-06T18:56:27.175Z,84.20
2019-02-06T18:59:03.927Z,84.40
2019-02-06T19:06:51.133Z,85.30
2019-02-06T19:09:30.039Z,85.30
2019-02-06T19:12:07.128Z,85.80
2019-02-06T19:14:43.859Z,85.60
2019-02-06T19:17:20.677Z,89.10
2019-02-06T19:22:32.982Z,85.90
2019-02-06T19:25:10.379Z,86.40
2019-02-06T19:27:47.256Z,85.50
2019-02-06T19:30:35.777Z,86.00
2019-02-06T19:35:46.895Z,81.30
2019-02-06T19:38:23.649Z,86.70
2019-02-06T19:41:00.480Z,85.60
2019-02-06T19:46:11.728Z,84.50
2019-02-06T19:48:48.419Z,85.90
2019-02-06T19:51:25.188Z,85.80
2019-02-06T19:54:01.928Z,82.70
2019-02-06T19:56:38.668Z,86.00
2019-02-06T19:59:15.435Z,85.40
2019-02-06T20:01:52.078Z,85.20
2019-02-06T20:04:28.889Z,84.90
2019-02-06T20:07:05.572Z,83.50
2019-02-06T20:09:42.620Z,85.00
2019-02-06T20:12:19.319Z,85.40
2019-02-06T20:17:31.406Z,85.30
2019-02-06T20:20:08.339Z,84.90
2019-02-06T20:22:45.043Z,85.80
2019-02-06T20:27:56.487Z,78.30
2019-02-06T20:33:08.300Z,84.20
2019-02-06T20:38:19.472Z,83.90
2019-02-06T20:43:30.695Z,85.90
2019-02-06T20:53:50.758Z,85.30
2019-02-06T20:56:27.499Z,82.00
2019-02-06T20:59:04.244Z,84.20
2019-02-06T21:01:41.952Z,83.80
2019-02-06T21:04:18.739Z,83.60
2019-02-06T21:06:55.525Z,83.30
2019-02-06T21:09:32.235Z,83.70
2019-02-06T21:12:08.987Z,83.60
2019-02-06T21:14:45.707Z,82.70
2019-02-06T21:17:22.799Z,83.50
2019-02-06T21:19:59.576Z,82.50
2019-02-06T21:22:36.380Z,82.80
2019-02-06T21:25:14.340Z,83.10
2019-02-06T21:27:51.188Z,84.10
2019-02-06T21:30:33.116Z,69.60
2019-02-06T21:33:09.928Z,69.70
2019-02-06T21:35:47.048Z,69.70
2019-02-06T21:38:23.803Z,69.20
2019-02-06T21:41:00.575Z,69.70
2019-02-06T21:43:43.821Z,69.40
2019-02-06T21:46:15.221Z,69.20
2019-02-06T21:48:51.921Z,68.80
2019-02-06T21:51:28.750Z,68.70
2019-02-06T21:54:05.633Z,69.00
2019-02-06T21:56:42.259Z,69.00
2019-02-06T21:59:19.031Z,68.70
2019-02-06T22:01:55.726Z,68.80
2019-02-06T22:04:32.726Z,69.00
2019-02-06T22:07:09.474Z,69.00
2019-02-06T22:09:46.230Z,68.80
2019-02-06T22:12:22.893Z,68.60
2019-02-06T22:14:59.626Z,69.40
2019-02-06T22:17:36.355Z,68.70
2019-02-06T22:20:13.952Z,67.70
2019-02-06T22:22:51.397Z,68.40
2019-02-06T22:25:28.196Z,66.90
2019-02-06T22:28:05.019Z,66.40
2019-02-06T22:30:41.969Z,78.30
2019-02-06T22:33:18.626Z,78.30
2019-02-06T22:35:55.382Z,79.10
2019-02-06T22:38:32.050Z,77.80
2019-02-06T22:41:08.915Z,78.40
2019-02-06T22:43:45.661Z,78.10
2019-02-06T22:48:56.643Z,78.70
2019-02-06T22:51:33.614Z,78.00
2019-02-06T22:54:10.353Z,75.00
2019-02-06T22:56:47.099Z,75.40
2019-02-06T23:02:01.120Z,75.50
2019-02-06T23:04:37.862Z,74.80
2019-02-06T23:07:14.597Z,75.40
2019-02-06T23:09:51.396Z,76.80
2019-02-06T23:12:28.234Z,75.80
2019-02-06T23:17:39.373Z,76.80
2019-02-06T23:20:16.765Z,63.10
2019-02-06T23:22:53.472Z,76.60
2019-02-06T23:25:30.210Z,62.30
2019-02-06T23:28:06.945Z,61.40
2019-02-06T23:30:43.600Z,61.50
2019-02-06T23:33:20.381Z,62.20
2019-02-06T23:35:57.087Z,61.30
2019-02-06T23:38:33.852Z,60.50
2019-02-06T23:41:10.688Z,60.80
2019-02-06T23:43:47.442Z,61.20
2019-02-06T23:46:24.139Z,61.00
2019-02-06T23:49:01.058Z,60.90
2019-02-06T23:51:37.717Z,61.00
2019-02-06T23:54:14.447Z,60.10
2019-02-06T23:56:51.175Z,72.80
2019-02-06T23:59:28.008Z,72.80
